Nathan Johnson

Chefscout - Middlesbrough
25 Nov 2027
Donnerstag
Verarbeitung

Persönlichkeit

Anpassungsfähigkeit (13) Ehrgeiz (11) Kontroverse (15) Loyalität (9) Druck (2) Professionalität (13) Fairness (5) Temperament (3)

Profil

Trainerstil Demokratisch
Lizenz Kontinentale C
Entschlossenheit 6
Menschenführung 8
Motivation 9
Disziplin 5
Arbeitszufriedenheit
100%
Ermüdung
0%
Rolle Chefscout
Gehalt 95.0K p/W
Vertrag 14.03.2029

Leistung

Verhalten Gut
Trainingseffektivität
46%
Spielerentwicklung
35%
Verletzungsprävention
65%
Taktische Umsetzung
65%

Letzte Ereignisse

Nahm an einer Scouting-Besprechung teil 7T her
Nahm an einer Scouting-Besprechung teil 14T her
Nahm an einer Scouting-Besprechung teil 21T her
Nahm an einer Scouting-Besprechung teil 28T her
Nahm an einer Scouting-Besprechung teil 35T her
Nahm an einer Scouting-Besprechung teil 42T her
Nahm an einer Scouting-Besprechung teil 49T her
Nahm an einer Scouting-Besprechung teil 56T her

Aktuell beobachtet

170
Spieler Verein Status Fähigkeit Vertrauen Beobachtet Zuletzt beobachtet Letzte Stimme
Ewan Henderson Wycombe Wanderers Bericht bereit 116 / 108 86% 1 16.08.2027 -
Eric Bocat Stoke City Verloren 114 / 111 86% 1 28.06.2027 -
Yehor Yarmoliuk Brentford Aktiv 148 / 153 40% 3 21.06.2027 -
Christos Mouzakitis Hull City Aktiv 131 / 153 40% 3 21.06.2027 -
Murillo Nottingham Forest Aktiv 154 / 144 40% 3 21.06.2027 -
Harry Pickering Blackburn Rovers Verloren 120 / 112 86% 1 21.06.2027 -
Keagan Tau Ajax Cape Town Aktiv 93 / 106 40% 2 01.06.2027 -
Matías Gómez Granada Aktiv 115 / 127 40% 1 01.06.2027 -
Leandro Martins Benfica Aktiv 96 / 105 40% 1 01.06.2027 -
Tom Fellows Southampton Aktiv 130 / 140 40% 3 30.05.2027 -
Williams Manyama SuperSport United Aktiv 118 / 101 40% 2 30.05.2027 -
Mohamed Belloumi Hull City Aktiv 134 / 137 40% 1 30.05.2027 -
Juan Mosquera Sheffield Wednesday Aktiv 127 / 117 40% 4 27.05.2027 -
Amadou Onana Aston Villa Aktiv 155 / 151 40% 3 27.05.2027 -
Guille Rosas Gijón Aktiv 136 / 137 40% 1 27.05.2027 -
Richard Koné Queens Park Rangers Aktiv 124 / 120 40% 1 27.05.2027 -
Scott Twine Bristol City Aktiv 124 / 130 40% 1 27.05.2027 -
Jack Diamond Stockport County Aktiv 117 / 106 40% 1 27.05.2027 -
Hlompho Lorch Ajax Cape Town Aktiv 96 / 104 40% 2 26.05.2027 -
Daniel Kelly Oxford United Aktiv 110 / 112 40% 1 26.05.2027 -
Jan Bürger Gillingham Aktiv 115 / 124 40% 1 26.05.2027 -
Dango Ouattara Brentford Aktiv 152 / 136 40% 6 25.05.2027 -
Adrien Truffert Bournemouth Aktiv 147 / 137 40% 7 25.05.2027 -
Assane Diao Lazio Aktiv 147 / 145 40% 2 25.05.2027 -
Florentino Luís Ipswich Town Aktiv 141 / 140 40% 9 25.05.2027 -
Giorgi Chakvetadze Watford Aktiv 130 / 121 40% 2 25.05.2027 -
Jack Hinshelwood Brighton Aktiv 144 / 155 40% 1 25.05.2027 -
Nathan Collins Brentford Aktiv 151 / 158 40% 8 22.05.2027 -
Toby Collyer West Bromwich Albion Aktiv 136 / 127 40% 4 22.05.2027 -
Mats Wieffer Brighton Aktiv 151 / 157 40% 5 21.05.2027 -
Ousmane Diomande Nottingham Forest Aktiv 155 / 156 40% 4 21.05.2027 -
Tariq Lamptey Queens Park Rangers Aktiv 136 / 136 40% 6 21.05.2027 -
Milan van Ewijk Mansfield Town Aktiv 129 / 126 40% 5 20.05.2027 -
Luke McNally Bristol City Aktiv 129 / 136 40% 2 20.05.2027 -
Adam Wharton Crystal Palace Aktiv 153 / 163 40% 11 19.05.2027 -
Jake O'Brien Everton Aktiv 151 / 133 40% 7 19.05.2027 -
Oliver Skipp Leicester City Aktiv 135 / 126 40% 4 18.05.2027 -
Ryan Sessegnon Fulham Aktiv 150 / 157 40% 7 17.05.2027 -
Pelle Mattsson Norwich City Aktiv 122 / 113 40% 5 17.05.2027 -
Kevin Fulham Aktiv 152 / 155 40% 4 17.05.2027 -
Cian Ashford Cardiff City Aktiv 117 / 118 40% 1 17.05.2027 -
Edoardo Bove Watford Aktiv 131 / 132 40% 1 17.05.2027 -
Ethan Galbraith Swansea City Aktiv 136 / 125 40% 8 16.05.2027 -
Max Bird Birmingham Aktiv 128 / 142 40% 6 16.05.2027 -
Harry Clarke Preston Aktiv 128 / 129 40% 4 14.05.2027 -
Shea Charles Southampton Aktiv 140 / 140 40% 4 12.05.2027 -
Tshepang Moremi Orlando Pirates Aktiv 111 / 98 40% 3 12.05.2027 -
Nuno Tavares Lazio Aktiv 152 / 153 40% 3 12.05.2027 -
Habib Diarra Sunderland Aktiv 137 / 142 40% 3 12.05.2027 -
Welington Southampton Aktiv 130 / 124 40% 9 11.05.2027 -
Giacomo Raspadori Atalanta Aktiv 149 / 150 40% 5 10.05.2027 -
Isaiah Jones Luton Town Aktiv 123 / 118 40% 1 10.05.2027 -
Stanley Mills Oxford United Aktiv 127 / 136 40% 3 09.05.2027 -
Bosun Lawal Stoke City Aktiv 125 / 141 40% 3 08.05.2027 -
Yussif Saidu Zaragoza Aktiv 124 / 133 40% 1 07.05.2027 -
Finley McAllister Grimsby Town Aktiv 89 / 97 40% 1 07.05.2027 -
Adam Bakoune Ospitaletto Aktiv 95 / 113 40% 1 07.05.2027 -
Michael Kayode Brentford Aktiv 146 / 142 40% 6 06.05.2027 -
Othmane Maamma Watford Aktiv 128 / 120 40% 3 06.05.2027 -
Eduardo Felicíssimo Sporting CP Aktiv 106 / 126 40% 1 05.05.2027 -
Joel McGregor Swindon Town Aktiv 91 / 105 40% 1 05.05.2027 -
James Garner Everton Aktiv 151 / 157 40% 6 03.05.2027 -
Derry Murkin Derby County Aktiv 130 / 129 40% 3 30.04.2027 -
Quinten Timber Crystal Palace Aktiv 147 / 153 40% 5 30.04.2027 -
Jacques Ekomié Wrexham Aktiv 132 / 130 40% 5 28.04.2027 -
Jason Knight Bristol City Aktiv 133 / 125 40% 1 23.04.2027 -
Enzo Le Fée Sunderland Aktiv 141 / 148 40% 1 23.04.2027 -
Bobby Thomas Coventry City Aktiv 131 / 136 40% 2 21.04.2027 -
Nicolò Rovella Lazio Aktiv 152 / 163 40% 1 21.04.2027 -
Jarrad Branthwaite Everton Aktiv 155 / 164 40% 7 20.04.2027 -
Boubacar Kamara Aston Villa Aktiv 166 / 170 40% 2 20.04.2027 -
Teden Mengi Luton Town Aktiv 128 / 133 40% 3 19.04.2027 -
Nadir Zortea Bologna Aktiv 141 / 138 40% 1 19.04.2027 -
Óscar Mingueza Crystal Palace Aktiv 154 / 160 40% 6 18.04.2027 -
Aaron Hickey Brentford Aktiv 149 / 154 40% 5 18.04.2027 -
Imrân Louza Watford Aktiv 130 / 142 40% 5 17.04.2027 -
Brian De Keersmaecker Oxford United Aktiv 124 / 116 40% 1 17.04.2027 -
Matt O'Riley Brighton Aktiv 151 / 153 40% 1 17.04.2027 -
Carlos Vicente Birmingham Verloren 148 / 135 40% 3 15.04.2027 -
Yankuba Minteh Brighton Aktiv 148 / 155 40% 1 15.04.2027 -
Derensili Sanches Fernandes Huddersfield Town Aktiv 121 / 137 40% 1 15.04.2027 -
Josh Tymon Swansea City Aktiv 126 / 133 40% 5 12.04.2027 -
Noah Sadiki Sunderland Aktiv 143 / 150 40% 3 08.04.2027 -
Mandla Erasmus SuperSport United Aktiv 115 / 120 40% 1 08.04.2027 -
Ibrahim Maza Bayer Leverkusen Aktiv 143 / 157 40% 1 08.04.2027 -
Christian Krasnodar Aktiv 135 / 125 40% 5 04.04.2027 -
Juanlu Bournemouth Aktiv 147 / 144 40% 5 03.04.2027 -
Bradley Tau SuperSport United Aktiv 128 / 122 40% 5 01.04.2027 -
Derrick Fordjour Medeama Aktiv 97 / 98 40% 1 01.04.2027 -
Mohamed-Ali Cho Hull City Aktiv 136 / 140 40% 2 29.03.2027 -
Borja Sainz Fiorentina Aktiv 147 / 149 40% 1 25.03.2027 -
Siyanda Ndlovu Bloemfontein Celtic Aktiv 125 / 106 40% 1 25.03.2027 -
Mduduzi Shabalala Kaizer Chiefs Aktiv 109 / 120 40% 1 23.03.2027 -
Femi Seriki Sheffield United Aktiv 124 / 126 40% 1 19.03.2027 -
Georginio Rutter Brighton Aktiv 145 / 140 40% 7 17.03.2027 -
Mikkel Damsgaard Brentford Aktiv 152 / 148 40% 1 17.03.2027 -
Marcelo Allende Mamelodi Sundowns Aktiv 139 / 110 40% 1 14.03.2027 -
Alessandro Buongiorno Sassuolo Aktiv 158 / 160 40% 1 10.03.2027 -
Anel Ahmedhodžić Burnley Aktiv 132 / 146 40% 3 09.03.2027 -
Finn Azaz Southampton Aktiv 128 / 124 40% 1 07.03.2027 -
Ismail Al Suwaidi Al Fujairah Aktiv 121 / 111 40% 1 07.03.2027 -
Surprise Manthosi Polokwane City Aktiv 90 / 88 40% 1 07.03.2027 -
Calvin Bassey Fulham Aktiv 154 / 151 40% 2 04.03.2027 -
Siyanda Msani University of Pretoria Aktiv 103 / 101 40% 1 03.03.2027 -
Ian Maatsen Aston Villa Aktiv 153 / 153 40% 1 01.03.2027 -
Marlon Gomes Shakhtar Aktiv 133 / 138 40% 1 17.02.2027 -
Kristoffer Lund Birmingham Aktiv 127 / 137 40% 1 14.02.2027 -
Darlin Yongwa Norwich City Aktiv 120 / 111 40% 1 09.02.2027 -
Gustavo Mantuan Zenit Aktiv 134 / 130 40% 1 06.02.2027 -
Dara O'Shea Ipswich Town Aktiv 136 / 126 40% 1 03.02.2027 -
Adam Randell Bristol City Aktiv 130 / 139 40% 1 03.02.2027 -
Ricardo Pepi Chelsea Aktiv 142 / 145 69% 1 25.01.2027 -
Stanislav Agkatsev Sunderland Verhandlung 132 / 133 66% 1 01.01.2027 -
Dmytro Riznyk Cruz Azul Verhandlung 137 / 137 66% 1 01.01.2027 -
Armando Broja Burnley Aktiv 134 / 125 40% 5 29.12.2026 -
Ruben van Bommel Ferencvaros Aktiv 132 / 128 40% 2 29.12.2026 -
Lorenzo Colombo Genoa Aktiv 136 / 140 40% 2 29.12.2026 -
Iliman N'Diaye Everton Aktiv 161 / 160 40% 9 27.12.2026 -
Dwight McNeil Crystal Palace Aktiv 138 / 151 40% 1 25.12.2026 -
Ismaïla Sarr Crystal Palace Aktiv 145 / 161 40% 2 24.12.2026 -
Jean-Philippe Mateta Crystal Palace Aktiv 151 / 153 40% 6 22.12.2026 -
Youssef En-Nesyri Al-Ittihad Aktiv 144 / 134 40% 5 22.12.2026 -
Nicolas Madsen Queens Park Rangers Aktiv 125 / 116 40% 2 22.12.2026 -
Rico Lewis Manchester City Aktiv 149 / 166 40% 3 20.12.2026 -
Lukáš Červ Viktoria Plzen Aktiv 128 / 135 40% 2 20.12.2026 -
Elliot Anderson Manchester City Aktiv 158 / 139 40% 2 19.12.2026 -
Nicolás Fernández Mercau Shakhtar Aktiv 137 / 145 40% 3 17.12.2026 -
Gabriel Martinelli Brighton Aktiv 165 / 160 40% 5 16.12.2026 -
Gonzalo Fulham Aktiv 147 / 157 40% 5 16.12.2026 -
Zeki Amdouni Burnley Aktiv 128 / 139 40% 2 16.12.2026 -
Jørgen Strand Larsen Crystal Palace Aktiv 142 / 155 40% 5 12.12.2026 -
Eddie Nketiah Crystal Palace Aktiv 144 / 137 40% 3 11.12.2026 -
Steven Bergwijn Al-Ittihad Aktiv 145 / 151 40% 2 11.12.2026 -
Tyler Adams Bournemouth Aktiv 154 / 164 40% 2 11.12.2026 -
Dominic Calvert-Lewin Leeds United Aktiv 139 / 150 40% 4 08.12.2026 -
Thiago Brentford Aktiv 142 / 159 40% 2 07.12.2026 -
Jarrod Bowen West Ham United Aktiv 159 / 141 40% 4 04.12.2026 -
Sam Surridge Nashville SC Aktiv 140 / 145 40% 1 04.12.2026 -
Manfred Ugalde Spartak Moscow Aktiv 130 / 122 40% 1 02.12.2026 -
Taty Castellanos West Ham United Aktiv 151 / 156 40% 7 01.12.2026 -
Andrea Pinamonti Lazio Aktiv 139 / 125 40% 1 29.11.2026 -
Wilson Isidor Sunderland Aktiv 137 / 121 40% 2 28.11.2026 -
Nicolò Zaniolo Udinese Aktiv 137 / 137 40% 2 27.11.2026 -
Joshua Zirkzee Manchester United Aktiv 138 / 151 40% 2 26.11.2026 -
Noah Okafor Leeds United Aktiv 146 / 149 40% 3 26.11.2026 -
Pablo Felipe West Ham United Aktiv 131 / 134 40% 3 25.11.2026 -
Breel Embolo Atlanta United FC Aktiv 131 / 147 40% 5 24.11.2026 -
Mattia Felici Cagliari Aktiv 131 / 139 40% 1 22.11.2026 -
Brian Brobbey Sunderland Aktiv 139 / 136 40% 1 21.11.2026 -
Álvaro Rodríguez Bournemouth Aktiv 137 / 125 40% 2 14.11.2026 -
Bryan Ramírez FC Cincinnati Aktiv 123 / 114 40% 1 11.11.2026 -
Conrad Wallem Austria Wien Aktiv 127 / 115 40% 1 11.11.2026 -
Gabriel Jesus Barcelona Aktiv 151 / 145 40% 5 08.11.2026 -
Kerem Aktürkoğlu Fenerbahce Aktiv 143 / 140 40% 3 05.11.2026 -
Barış Alper Yılmaz Galatasaray Aktiv 147 / 165 40% 3 05.11.2026 -
Mateo Pellegrino Fiorentina Aktiv 134 / 142 40% 1 05.11.2026 -
Razvan Balasa Crvena Zvezda Aktiv 149 / 151 40% 2 28.10.2026 -
Adnan Courtois KV Oostende Aktiv 132 / 124 40% 4 23.10.2026 -
Japhet Sery Larsen Philadelphia Union Aktiv 116 / 112 40% 1 21.10.2026 -
Romelu Castagne KV Oostende Aktiv 132 / 147 40% 2 13.10.2026 -
Nicolò Tresoldi Club Brugge Aktiv 127 / 138 40% 1 11.10.2026 -
Kimito Nono Sanfrecce Hiroshima Aktiv 118 / 115 40% 1 09.10.2026 -
Lukas Engel Real Salt Lake Aktiv 125 / 115 40% 1 09.10.2026 -
Cody Gakpo Liverpool Aktiv 161 / 155 40% 4 06.10.2026 -
Federico Chiesa Liverpool Aktiv 152 / 161 40% 2 05.10.2026 -
Lucas Halter Houston Dynamo Aktiv 123 / 104 40% 1 05.10.2026 -
Petar Musa Adana Demirspor Aktiv 127 / 117 40% 2 02.10.2026 -
Diego Rossi Monterrey Aktiv 138 / 124 40% 1 27.09.2026 -
Martín Ojeda Orlando City Aktiv 126 / 153 40% 1 22.09.2026 -
Erick Sánchez OGC Nice Verhandlung 139 / 139 66% 1 24.08.2026 -